Time;durP1;ratioP1;P1;durP2;ratioP2;P2;SDS_P1;SDS_P2;PMS_P1;PMS_P2;Temp;Humidity;BMP_temperature;BMP_pressure;BME280_temperature;BME280_humidity;BME280_pressure;Samples;Min_cycle;Max_cycle;Signal;HPM_P1;HPM_P2
2023/05/12 00:00:52;;;;;;;22.80;16.00;;;;;;;11.69;45.82;100761.60;109429;1271;22013;-83
2023/05/12 00:03:54;;;;;;;21.90;16.90;;;;;;;11.65;45.95;100762.61;109935;1271;21991;-84
2023/05/12 00:06:47;;;;;;;17.40;15.20;;;;;;;11.60;45.93;100761.40;109804;1268;22060;-82
2023/05/12 00:09:21;;;;;;;17.50;14.90;;;;;;;11.58;46.11;100763.20;110104;1264;23032;-83
2023/05/12 00:12:03;;;;;;;16.00;12.70;;;;;;;11.57;46.12;100759.77;109878;1268;21976;-82
2023/05/12 00:15:15;;;;;;;;;;;;;;;;;;;;;
2023/05/12 00:18:19;;;;;;;;;;;;;;;;;;;;;
2023/05/12 00:21:30;;;;;;;17.60;12.80;;;;;;;11.32;46.64;100758.90;110898;1264;21978;-83
2023/05/12 00:24:54;;;;;;;;;;;;;;;11.28;46.79;100754.48;110815;1264;21928;-81
2023/05/12 00:27:57;;;;;;;19.10;12.50;;;;;;;11.18;46.87;100753.08;110911;1259;21991;-82
2023/05/12 00:30:55;;;;;;;16.30;12.60;;;;;;;11.14;46.83;100752.34;110689;1264;22001;-83
2023/05/12 00:34:13;;;;;;;13.00;11.40;;;;;;;11.12;47.01;100750.83;109752;1271;22731;-83
2023/05/12 00:37:11;;;;;;;;;;;;;;;;;;;;;
2023/05/12 00:40:03;;;;;;;15.70;12.30;;;;;;;11.10;47.11;100756.83;109684;1271;21995;-82
2023/05/12 00:42:56;;;;;;;18.50;12.10;;;;;;;11.07;47.14;100756.75;109729;1271;22018;-83
2023/05/12 00:45:31;;;;;;;16.30;11.40;;;;;;;11.05;47.29;100760.65;109463;1276;21990;-81
2023/05/12 00:48:20;;;;;;;15.20;10.20;;;;;;;11.04;47.35;100762.09;109415;1276;22455;-83
2023/05/12 00:51:20;;;;;;;13.30;9.20;;;;;;;10.99;47.41;100760.33;109769;1269;22268;-84
2023/05/12 00:54:47;;;;;;;16.50;10.00;;;;;;;10.90;47.47;100759.57;109521;1273;22032;-83
2023/05/12 00:57:56;;;;;;;12.90;9.90;;;;;;;10.87;47.79;100758.30;109393;1275;22450;-83
2023/05/12 01:00:55;;;;;;;15.80;10.80;;;;;;;10.83;47.89;100764.15;108821;1281;21995;-83
2023/05/12 01:03:47;;;;;;;19.00;10.10;;;;;;;10.80;48.01;100766.86;109228;1275;21752;-83
2023/05/12 01:07:04;;;;;;;12.10;8.80;;;;;;;10.74;48.06;100770.55;109344;1275;22450;-82
2023/05/12 01:10:38;;;;;;;;;;;;;;;;;;;;;
2023/05/12 01:13:34;;;;;;;11.80;9.10;;;;;;;10.63;48.41;100772.80;109585;1274;23618;-82
2023/05/12 01:20:24;;;;;;;14.20;9.60;;;;;;;10.52;48.63;100778.53;110314;1267;21985;-83
2023/05/12 01:23:44;;;;;;;10.40;9.30;;;;;;;10.47;48.81;100777.81;110594;1267;22045;-83
2023/05/12 01:27:06;;;;;;;12.20;9.70;;;;;;;10.45;49.02;100778.24;110348;1267;22011;-83
2023/05/12 01:30:37;;;;;;;;;;;;;;;;;;;;;
2023/05/12 01:33:28;;;;;;;12.20;8.90;;;;;;;10.41;49.10;100779.94;109500;1274;22006;-83
2023/05/12 01:36:14;;;;;;;13.90;8.40;;;;;;;10.39;49.03;100781.37;109594;1274;23711;-79
2023/05/12 01:39:02;;;;;;;11.30;8.50;;;;;;;10.37;49.17;100783.36;109260;1274;21986;-79
2023/05/12 01:41:41;;;;;;;15.00;8.70;;;;;;;10.35;49.28;100781.14;109329;1274;21991;-79
2023/05/12 01:44:21;;;;;;;9.30;8.30;;;;;;;10.34;49.20;100782.39;109348;1274;22013;-79
2023/05/12 01:47:14;;;;;;;14.20;9.00;;;;;;;10.30;49.35;100784.07;109632;1270;22290;-81
2023/05/12 01:49:58;;;;;;;15.50;8.50;;;;;;;10.26;49.34;100788.16;110106;1261;22860;-81
2023/05/12 01:52:47;;;;;;;;;;;;;;;;;;;;;
2023/05/12 01:55:26;;;;;;;9.00;7.20;;;;;;;10.17;49.64;100787.54;109811;1264;22042;-82
2023/05/12 01:58:22;;;;;;;12.00;8.20;;;;;;;10.15;49.70;100789.70;109871;1270;22003;-83
2023/05/12 02:01:08;;;;;;;10.40;7.90;;;;;;;10.11;49.83;100790.67;109770;1270;23625;-80
2023/05/12 02:04:06;;;;;;;11.50;7.00;;;;;;;10.10;49.86;100790.55;109755;1258;21970;-80
2023/05/12 02:06:51;;;;;;;13.10;7.40;;;;;;;10.06;49.92;100790.12;109815;1267;21985;-81
2023/05/12 02:09:36;;;;;;;13.10;7.40;;;;;;;10.05;50.08;100792.77;109913;1264;23704;-81
2023/05/12 02:12:29;;;;;;;9.50;6.70;;;;;;;10.03;50.03;100788.30;110659;1264;21982;-80
2023/05/12 02:15:10;;;;;;;17.50;8.30;;;;;;;10.01;50.04;100791.33;110277;1269;22004;-80
2023/05/12 02:17:53;;;;;;;11.10;7.50;;;;;;;9.98;50.21;100791.75;109849;1268;23128;-81
2023/05/12 02:20:28;;;;;;;11.40;6.70;;;;;;;9.96;50.27;100794.58;109791;1269;22001;-80
2023/05/12 02:23:11;;;;;;;;;;;;;;;9.93;50.18;100791.52;109712;1269;22013;-80
2023/05/12 02:25:51;;;;;;;9.70;7.10;;;;;;;9.81;50.43;100796.22;109788;1269;21982;-80
2023/05/12 02:28:33;;;;;;;14.80;6.90;;;;;;;9.78;50.37;100794.38;110055;1269;22444;-80
2023/05/12 02:31:07;;;;;;;10.80;7.00;;;;;;;9.76;50.51;100790.78;109803;1269;21875;-80
2023/05/12 02:33:54;;;;;;;13.50;6.80;;;;;;;9.74;50.47;100797.80;110213;1264;23621;-80
2023/05/12 02:36:39;;;;;;;10.70;6.80;;;;;;;9.72;50.57;100800.47;110683;1264;21993;-80
2023/05/12 02:39:22;;;;;;;11.50;6.60;;;;;;;9.69;50.67;100798.80;110531;1264;22054;-81
2023/05/12 02:42:27;;;;;;;11.10;6.50;;;;;;;9.67;50.75;100796.59;110482;1264;21998;-81
2023/05/12 02:45:04;;;;;;;10.40;7.20;;;;;;;9.67;50.84;100798.70;110606;1264;23741;-80
2023/05/12 02:48:01;;;;;;;10.80;6.50;;;;;;;9.64;50.71;100797.37;110539;1264;21944;-80
2023/05/12 02:50:53;;;;;;;12.50;7.10;;;;;;;9.61;51.04;100801.09;110870;1264;22454;-81
2023/05/12 02:53:38;;;;;;;14.60;7.40;;;;;;;9.59;51.04;100800.79;110523;1264;21970;-81
2023/05/12 02:56:20;;;;;;;8.40;7.00;;;;;;;9.58;51.06;100800.30;110250;1264;22412;-80
2023/05/12 02:59:08;;;;;;;8.30;7.30;;;;;;;9.57;51.17;100800.84;110530;1264;21989;-82
2023/05/12 03:01:59;;;;;;;11.90;7.80;;;;;;;9.56;51.20;100801.91;109957;1270;22017;-82
2023/05/12 03:05:07;;;;;;;9.70;6.60;;;;;;;9.55;51.26;100802.98;109884;1264;22007;-83
2023/05/12 03:07:59;;;;;;;8.70;7.60;;;;;;;9.50;51.25;100798.60;109719;1270;23090;-82
2023/05/12 03:10:43;;;;;;;10.80;7.60;;;;;;;9.50;51.35;100800.50;109864;1270;22024;-83
2023/05/12 03:13:45;;;;;;;9.90;7.30;;;;;;;9.48;51.49;100800.92;109892;1270;21994;-82
2023/05/12 03:16:40;;;;;;;11.80;7.50;;;;;;;9.49;51.56;100803.16;109865;1270;21986;-80
2023/05/12 03:19:19;;;;;;;13.90;8.00;;;;;;;9.50;51.58;100801.90;109999;1264;21989;-79
2023/05/12 03:22:07;;;;;;;12.30;8.20;;;;;;;9.51;51.59;100802.24;110531;1264;21968;-80
2023/05/12 03:24:54;;;;;;;11.80;7.70;;;;;;;9.50;51.50;100801.20;110612;1264;21995;-81
2023/05/12 03:27:40;;;;;;;11.20;7.40;;;;;;;9.51;51.59;100805.02;110346;1268;21808;-80
2023/05/12 03:30:36;;;;;;;8.80;7.70;;;;;;;9.50;51.57;100804.88;110218;1268;21989;-81
2023/05/12 03:33:16;;;;;;;12.10;7.60;;;;;;;9.49;51.56;100805.05;109903;1268;21999;-79
2023/05/12 03:36:00;;;;;;;11.80;8.20;;;;;;;9.49;51.78;100808.55;109762;1273;23128;-80
2023/05/12 03:39:01;;;;;;;9.80;8.50;;;;;;;9.50;51.74;100811.63;109778;1272;22002;-79
2023/05/12 03:42:10;;;;;;;9.60;7.90;;;;;;;9.51;51.85;100810.23;109674;1272;22942;-79
2023/05/12 03:44:55;;;;;;;11.10;8.40;;;;;;;9.50;51.93;100808.52;109327;1273;21982;-81
2023/05/12 03:47:41;;;;;;;13.20;7.90;;;;;;;9.51;51.90;100809.36;109245;1277;22254;-80
2023/05/12 03:50:23;;;;;;;12.20;8.30;;;;;;;9.53;51.92;100813.83;109231;1277;22283;-83
2023/05/12 03:53:05;;;;;;;9.80;8.00;;;;;;;9.56;52.03;100814.95;108847;1281;22010;-82
2023/05/12 03:56:06;;;;;;;11.70;8.40;;;;;;;9.62;52.28;100818.44;109413;1277;21858;-82
2023/05/12 03:59:15;;;;;;;9.50;7.70;;;;;;;9.70;52.00;100821.20;109210;1278;23017;-81
2023/05/12 04:02:19;;;;;;;10.40;8.00;;;;;;;9.75;51.94;100823.14;109271;1278;22366;-81
2023/05/12 04:05:18;;;;;;;12.20;8.10;;;;;;;9.83;51.86;100827.61;109573;1272;21998;-81
2023/05/12 04:08:04;;;;;;;10.50;8.50;;;;;;;9.91;51.68;100823.23;109801;1272;23133;-81
2023/05/12 04:10:52;;;;;;;11.30;7.70;;;;;;;10.02;51.74;100819.42;110685;1264;23624;-82
2023/05/12 04:13:32;;;;;;;12.20;8.10;;;;;;;10.15;51.60;100821.02;110649;1264;21984;-82
2023/05/12 04:16:13;;;;;;;13.40;8.60;;;;;;;10.29;51.66;100825.66;110638;1264;21990;-80
2023/05/12 04:18:56;;;;;;;15.80;8.40;;;;;;;10.43;51.43;100826.98;110517;1264;22104;-81
2023/05/12 04:21:30;;;;;;;12.40;7.90;;;;;;;10.58;51.19;100827.27;110385;1264;22452;-82
2023/05/12 04:24:00;;;;;;;9.60;7.30;;;;;;;10.74;51.32;100825.02;110724;1264;23825;-82
2023/05/12 04:26:33;;;;;;;11.20;7.10;;;;;;;10.92;51.00;100827.25;110330;1264;21947;-82
2023/05/12 04:29:05;;;;;;;11.20;7.70;;;;;;;11.05;50.64;100831.89;110231;1264;23644;-81
2023/05/12 04:31:35;;;;;;;10.10;7.00;;;;;;;11.23;50.64;100831.47;109697;1270;22201;-83
2023/05/12 04:34:07;;;;;;;10.20;6.20;;;;;;;11.50;50.79;100835.46;109913;1268;21973;-81
2023/05/12 04:36:38;;;;;;;10.30;6.30;;;;;;;11.85;50.38;100839.15;109570;1270;23092;-83
2023/05/12 04:39:09;;;;;;;7.10;6.00;;;;;;;12.16;49.64;100839.80;109584;1270;21948;-80
2023/05/12 04:41:38;;;;;;;10.00;6.20;;;;;;;12.45;49.40;100844.48;109837;1270;23076;-79
2023/05/12 04:44:08;;;;;;;9.50;5.70;;;;;;;12.84;49.17;100844.55;109607;1270;21974;-81
2023/05/12 04:46:37;;;;;;;10.70;6.00;;;;;;;13.24;48.55;100845.10;109330;1270;22068;-80
2023/05/12 04:49:07;;;;;;;9.30;5.70;;;;;;;13.62;47.83;100844.77;109769;1264;21967;-78
2023/05/12 04:51:41;;;;;;;8.40;6.00;;;;;;;13.97;46.93;100847.44;110318;1261;21969;-80
2023/05/12 04:54:24;;;;;;;11.90;5.70;;;;;;;14.14;45.45;100849.85;109989;1264;22017;-79
2023/05/12 04:57:53;;;;;;;12.60;5.50;;;;;;;14.23;45.20;100853.83;110478;1264;23634;-79
2023/05/12 05:01:11;;;;;;;8.50;5.60;;;;;;;14.33;44.67;100857.54;110638;1264;22827;-80
2023/05/12 05:04:34;;;;;;;7.80;5.80;;;;;;;14.22;44.16;100855.58;110256;1268;22084;-80
2023/05/12 05:08:04;;;;;;;10.50;5.50;;;;;;;14.21;44.34;100854.41;110297;1268;22063;-80
2023/05/12 05:11:02;;;;;;;9.80;5.60;;;;;;;14.35;44.52;100854.64;110267;1268;22983;-80
2023/05/12 05:14:13;;;;;;;9.60;5.30;;;;;;;14.69;44.42;100849.64;110241;1268;21984;-80
2023/05/12 05:17:13;;;;;;;10.60;5.30;;;;;;;15.12;43.96;100854.04;110107;1268;21980;-81
2023/05/12 05:20:44;;;;;;;14.50;4.30;;;;;;;15.37;42.74;100854.77;110368;1268;21982;-82
2023/05/12 05:23:38;;;;;;;11.60;5.00;;;;;;;15.60;42.53;100855.72;110562;1264;23644;-79
2023/05/12 05:26:43;;;;;;;8.90;4.60;;;;;;;15.90;41.83;100853.34;110697;1264;22985;-81
2023/05/12 05:29:57;;;;;;;8.90;5.50;;;;;;;16.10;41.36;100852.80;109830;1269;22936;-83
2023/05/12 05:32:56;;;;;;;;;;;;;;;;;;;;;
2023/05/12 05:36:25;;;;;;;7.90;4.80;;;;;;;16.15;40.06;100853.95;110012;1269;21994;-82
2023/05/12 05:40:01;;;;;;;9.60;5.20;;;;;;;16.13;40.39;100856.72;109120;1281;22477;-80
2023/05/12 05:43:04;;;;;;;10.40;5.00;;;;;;;16.17;40.37;100861.02;109023;1285;21999;-80
2023/05/12 05:46:13;;;;;;;6.00;4.40;;;;;;;16.31;40.39;100859.08;108858;1285;22021;-81
2023/05/12 05:49:52;;;;;;;14.50;5.20;;;;;;;16.49;40.07;100861.95;109090;1269;23049;-82
2023/05/12 05:52:57;;;;;;;7.00;4.70;;;;;;;16.83;40.10;100863.80;109160;1281;22097;-81
2023/05/12 05:55:58;;;;;;;12.30;5.40;;;;;;;17.28;39.38;100870.94;109098;1274;21995;-80
2023/05/12 05:58:44;;;;;;;5.90;5.00;;;;;;;17.50;39.15;100869.48;109610;1274;23605;-81
2023/05/12 06:01:29;;;;;;;13.40;4.90;;;;;;;17.98;38.76;100870.71;109710;1270;22041;-80
2023/05/12 06:04:18;;;;;;;12.00;6.10;;;;;;;17.96;37.06;100876.10;109964;1269;21984;-79
2023/05/12 06:06:55;;;;;;;6.90;4.80;;;;;;;17.74;37.27;100879.89;109895;1270;21970;-80
2023/05/12 06:09:59;;;;;;;;;;;;;;;;;;;;;
2023/05/12 06:13:22;;;;;;;7.40;4.70;;;;;;;17.68;37.54;100883.94;110549;1267;21973;-80
2023/05/12 06:16:02;;;;;;;9.10;5.00;;;;;;;17.71;37.26;100882.34;109784;1271;22016;-81
2023/05/12 06:18:58;;;;;;;14.40;5.50;;;;;;;17.65;37.19;100881.80;109526;1276;22335;-82
2023/05/12 06:21:41;;;;;;;11.10;5.20;;;;;;;17.83;37.93;100877.83;109436;1276;21984;-83
2023/05/12 06:24:49;;;;;;;12.70;4.90;;;;;;;18.33;37.97;100874.94;109268;1276;23637;-81
2023/05/12 06:27:32;;;;;;;6.30;4.60;;;;;;;18.75;37.13;100877.61;109470;1274;22021;-81
2023/05/12 06:30:35;;;;;;;8.10;5.30;;;;;;;18.82;36.23;100878.95;109515;1274;24597;-82
2023/05/12 06:33:15;;;;;;;7.40;5.50;;;;;;;18.66;35.71;100880.30;109485;1274;22864;-80
2023/05/12 06:35:57;;;;;;;10.50;4.90;;;;;;;18.40;35.83;100879.08;109530;1269;22125;-79
2023/05/12 06:38:55;;;;;;;7.40;4.20;;;;;;;18.36;36.60;100877.58;110243;1268;23599;-80
2023/05/12 06:42:10;;;;;;;13.70;4.60;;;;;;;18.53;36.83;100874.58;110437;1268;22009;-81
2023/05/12 06:45:01;;;;;;;7.00;3.80;;;;;;;18.89;36.47;100871.77;109787;1270;23715;-81
2023/05/12 06:48:12;;;;;;;7.10;5.00;;;;;;;19.13;36.02;100871.52;109523;1274;23307;-81
2023/05/12 06:51:13;;;;;;;10.10;4.40;;;;;;;19.34;35.29;100874.02;109552;1274;23724;-79
2023/05/12 06:54:16;;;;;;;8.50;4.50;;;;;;;19.43;35.22;100870.23;110058;1268;23744;-80
2023/05/12 06:57:04;;;;;;;7.40;3.70;;;;;;;19.76;35.30;100871.38;110192;1269;21975;-81
2023/05/12 07:00:06;;;;;;;;;;;;;;;;;;;;;
2023/05/12 07:03:09;;;;;;;9.80;4.60;;;;;;;19.91;34.30;100869.13;110397;1264;21970;-80
2023/05/12 07:06:20;;;;;;;8.40;4.40;;;;;;;20.22;34.64;100868.38;110505;1264;21964;-80
2023/05/12 07:09:37;;;;;;;7.50;4.40;;;;;;;20.53;33.65;100867.41;109490;1274;22023;-80
2023/05/12 07:12:38;;;;;;;14.90;4.50;;;;;;;20.56;32.55;100867.23;109499;1274;22197;-81
2023/05/12 07:15:18;;;;;;;8.10;4.30;;;;;;;20.35;32.71;100868.54;109478;1274;24904;-81
2023/05/12 07:17:55;;;;;;;10.30;4.50;;;;;;;20.19;32.69;100870.50;109642;1274;21983;-81
2023/05/12 07:21:03;;;;;;;13.80;4.50;;;;;;;19.95;33.11;100863.53;109548;1274;21993;-80
2023/05/12 07:23:51;;;;;;;8.90;4.20;;;;;;;19.95;33.25;100864.59;109488;1274;23640;-81
2023/05/12 07:27:11;;;;;;;10.30;4.20;;;;;;;19.92;33.42;100864.52;109405;1275;22103;-79
2023/05/12 07:30:27;;;;;;;9.40;4.20;;;;;;;20.00;33.15;100861.80;109457;1275;22012;-80
2023/05/12 07:33:45;;;;;;;8.50;3.80;;;;;;;20.28;33.42;100856.69;109574;1269;23063;-80
2023/05/12 07:36:46;;;;;;;6.50;3.70;;;;;;;20.44;32.83;100855.52;110263;1269;21990;-78
2023/05/12 07:40:15;;;;;;;13.50;4.30;;;;;;;20.55;32.06;100858.98;109998;1269;22059;-78
2023/05/12 07:43:22;;;;;;;12.90;4.40;;;;;;;20.75;32.21;100858.48;109880;1269;22077;-79
2023/05/12 07:45:59;;;;;;;9.30;3.50;;;;;;;21.04;31.98;100856.17;110462;1264;21997;-79
2023/05/12 07:48:38;;;;;;;4.80;3.40;;;;;;;21.31;31.61;100857.54;109666;1269;23699;-78
2023/05/12 07:51:09;;;;;;;11.20;4.30;;;;;;;21.53;30.92;100860.52;109847;1270;21970;-79
2023/05/12 07:53:42;;;;;;;7.70;3.20;;;;;;;21.49;30.31;100863.85;109624;1269;22000;-78
2023/05/12 07:56:12;;;;;;;9.10;4.20;;;;;;;21.44;30.41;100864.02;109692;1269;21993;-79
2023/05/12 07:58:46;;;;;;;8.50;3.30;;;;;;;21.38;29.97;100855.95;109264;1275;21984;-79
2023/05/12 08:01:22;;;;;;;8.80;3.50;;;;;;;21.32;30.09;100853.92;109284;1275;23001;-79
2023/05/12 08:03:56;;;;;;;8.70;3.30;;;;;;;21.44;30.26;100853.58;109091;1275;23126;-79
2023/05/12 08:06:34;;;;;;;8.50;2.90;;;;;;;21.76;30.18;100853.32;109413;1270;21976;-79
2023/05/12 08:09:05;;;;;;;7.80;3.50;;;;;;;21.94;29.38;100847.52;109418;1273;23749;-79
2023/05/12 08:11:39;;;;;;;12.90;3.40;;;;;;;21.97;29.05;100843.52;109326;1273;22413;-79
2023/05/12 08:14:12;;;;;;;9.50;3.00;;;;;;;22.07;28.90;100844.55;109654;1273;23765;-79
2023/05/12 08:16:46;;;;;;;5.00;2.60;;;;;;;22.08;28.19;100848.89;109353;1267;22272;-78
2023/05/12 08:19:29;;;;;;;9.00;3.00;;;;;;;22.03;28.30;100850.09;109944;1267;22066;-77
2023/05/12 08:22:32;;;;;;;6.50;3.00;;;;;;;22.06;28.40;100847.25;110039;1267;21984;-80
2023/05/12 08:28:11;;;;;;;9.30;3.30;;;;;;;21.96;28.44;100848.02;109518;1269;21995;-79
2023/05/12 08:30:46;;;;;;;13.80;2.50;;;;;;;21.99;28.27;100846.36;109926;1259;23704;-80
2023/05/12 08:33:29;;;;;;;9.00;2.80;;;;;;;22.15;28.42;100849.20;109906;1269;22037;-81
2023/05/12 08:36:20;;;;;;;8.40;2.80;;;;;;;22.36;27.64;100843.12;110168;1269;21991;-80
2023/05/12 08:38:51;;;;;;;7.50;3.00;;;;;;;22.31;27.45;100842.47;109828;1269;22638;-79
2023/05/12 08:41:48;;;;;;;;;;;;;;;22.38;27.86;100847.78;109710;1269;21958;-79
2023/05/12 08:44:20;;;;;;;6.40;2.80;;;;;;;22.38;27.60;100851.14;109983;1269;22837;-80
2023/05/12 08:47:05;;;;;;;7.60;2.80;;;;;;;22.41;27.70;100863.32;109756;1269;21988;-79
2023/05/12 08:49:41;;;;;;;8.10;2.50;;;;;;;22.31;27.43;100852.95;109948;1269;22747;-78
2023/05/12 08:52:17;;;;;;;8.50;2.50;;;;;;;22.43;27.92;100841.72;109765;1269;21993;-79
2023/05/12 08:54:49;;;;;;;7.60;2.50;;;;;;;22.75;27.37;100850.11;110121;1269;21999;-78
2023/05/12 08:57:27;;;;;;;6.70;2.60;;;;;;;22.99;27.21;100855.61;109406;1273;21991;-80
2023/05/12 09:00:04;;;;;;;9.60;2.90;;;;;;;22.96;26.98;100856.95;109636;1273;22367;-78
2023/05/12 09:02:38;;;;;;;6.40;2.20;;;;;;;22.90;27.11;100852.11;109624;1273;22004;-79
2023/05/12 09:05:23;;;;;;;9.10;2.70;;;;;;;22.82;27.00;100852.56;109950;1268;22109;-78
2023/05/12 09:07:58;;;;;;;8.70;2.40;;;;;;;22.77;27.31;100850.35;110029;1268;22000;-79
2023/05/12 09:10:28;;;;;;;4.40;2.50;;;;;;;22.93;27.35;100852.89;110159;1268;22056;-78
2023/05/12 09:13:22;;;;;;;7.90;2.60;;;;;;;23.02;26.88;100846.73;109715;1265;21979;-77
2023/05/12 09:15:55;;;;;;;6.80;2.70;;;;;;;22.99;27.22;100844.92;109639;1269;23615;-79
2023/05/12 09:18:31;;;;;;;9.30;2.90;;;;;;;23.14;27.32;100845.31;110184;1269;22010;-78
2023/05/12 09:21:01;;;;;;;5.10;2.40;;;;;;;23.16;27.14;100849.27;109698;1257;22004;-79
2023/05/12 09:23:33;;;;;;;5.10;2.50;;;;;;;23.19;27.20;100844.63;109898;1269;22766;-78
2023/05/12 09:26:04;;;;;;;7.60;2.60;;;;;;;23.33;27.08;100850.38;109698;1269;22081;-78
2023/05/12 09:28:39;;;;;;;10.40;3.20;;;;;;;23.33;26.84;100852.09;110107;1269;21978;-78
2023/05/12 09:31:17;;;;;;;7.60;2.90;;;;;;;23.24;26.81;100849.50;109667;1269;23607;-79
2023/05/12 09:33:49;;;;;;;9.30;2.90;;;;;;;23.29;27.15;100847.89;110274;1264;21979;-79
2023/05/12 09:36:20;;;;;;;;;;;;;;;23.32;27.20;100836.27;110584;1264;23637;-79
2023/05/12 09:39:03;;;;;;;6.40;2.90;;;;;;;23.46;27.44;100847.19;110775;1264;21975;-78
2023/05/12 09:41:40;;;;;;;7.20;2.80;;;;;;;23.56;27.09;100840.39;110739;1264;22161;-79
2023/05/12 09:44:15;;;;;;;9.70;2.90;;;;;;;23.74;27.16;100843.87;110631;1264;23625;-81
2023/05/12 09:46:49;;;;;;;6.30;2.40;;;;;;;23.79;26.64;100846.83;110472;1264;22066;-76
2023/05/12 09:49:25;;;;;;;6.20;2.70;;;;;;;23.68;26.51;100846.54;110528;1258;21983;-79
2023/05/12 09:52:03;;;;;;;3.80;2.20;;;;;;;23.61;26.47;100847.42;110137;1263;21943;-80
2023/05/12 09:54:38;;;;;;;8.00;2.90;;;;;;;23.61;26.57;100847.84;109731;1270;23705;-79
2023/05/12 09:57:12;;;;;;;6.70;3.60;;;;;;;23.75;26.88;100846.65;109365;1270;23091;-79
2023/05/12 09:59:43;;;;;;;7.10;3.10;;;;;;;23.93;26.74;100846.23;109443;1270;23664;-80
2023/05/12 10:02:17;;;;;;;13.30;2.80;;;;;;;24.10;26.48;100849.66;109584;1263;22750;-79
2023/05/12 10:05:05;;;;;;;8.20;3.20;;;;;;;24.00;25.78;100845.90;109364;1275;22011;-78
2023/05/12 10:07:38;;;;;;;10.60;3.20;;;;;;;23.88;26.06;100840.77;109389;1271;23679;-79
2023/05/12 10:10:16;;;;;;;6.10;2.40;;;;;;;23.69;26.24;100847.86;109148;1274;22819;-76
2023/05/12 10:12:49;;;;;;;4.90;2.60;;;;;;;23.37;26.45;100839.73;108851;1279;22429;-76
2023/05/12 10:15:20;;;;;;;5.70;2.90;;;;;;;23.15;26.92;100843.36;108982;1279;22006;-76
2023/05/12 10:17:54;;;;;;;5.20;3.20;;;;;;;23.07;27.27;100835.33;108693;1273;21983;-77
2023/05/12 10:20:27;;;;;;;7.40;3.10;;;;;;;23.19;27.46;100831.45;108792;1280;22164;-78
2023/05/12 10:23:00;;;;;;;6.80;2.80;;;;;;;23.20;26.85;100836.94;108987;1274;22021;-79
2023/05/12 10:25:29;;;;;;;11.10;3.30;;;;;;;23.09;26.69;100834.08;109306;1274;21980;-77
2023/05/12 10:28:02;;;;;;;5.20;2.60;;;;;;;23.12;27.14;100831.30;109550;1274;22386;-77
2023/05/12 10:30:33;;;;;;;9.40;2.70;;;;;;;23.15;26.66;100828.24;109160;1270;22976;-76
2023/05/12 10:33:10;;;;;;;10.60;2.50;;;;;;;23.08;26.58;100832.73;109058;1280;22000;-78
2023/05/12 10:35:43;;;;;;;8.40;2.80;;;;;;;22.89;26.59;100828.54;108930;1278;22461;-77
2023/05/12 10:38:18;;;;;;;8.60;3.10;;;;;;;22.70;27.00;100831.21;109396;1269;21995;-77
2023/05/12 10:40:58;;;;;;;12.30;3.20;;;;;;;22.53;27.28;100836.25;109589;1269;21977;-78
2023/05/12 10:43:41;;;;;;;6.60;2.60;;;;;;;22.34;27.63;100826.81;109506;1265;23650;-77
2023/05/12 10:46:14;;;;;;;5.10;2.80;;;;;;;22.32;28.05;100828.43;109689;1269;22007;-76
2023/05/12 10:49:09;;;;;;;8.20;2.70;;;;;;;22.24;27.82;100829.52;110113;1269;22472;-78
2023/05/12 10:51:42;;;;;;;11.50;3.00;;;;;;;22.06;27.98;100830.63;110231;1263;21973;-77
2023/05/12 10:54:20;;;;;;;7.10;4.00;;;;;;;21.90;27.89;100825.23;110454;1263;21968;-77
2023/05/12 10:56:56;;;;;;;8.10;2.50;;;;;;;21.85;28.11;100824.42;110366;1263;23622;-76
2023/05/12 10:59:27;;;;;;;5.40;2.30;;;;;;;21.86;28.02;100828.63;110443;1261;23183;-77
2023/05/12 11:02:24;;;;;;;12.60;2.90;;;;;;;21.79;27.91;100825.60;110204;1263;23653;-78
2023/05/12 11:05:00;;;;;;;6.00;2.10;;;;;;;21.68;28.04;100826.61;110446;1263;22435;-77
2023/05/12 11:07:49;;;;;;;7.90;2.40;;;;;;;21.62;28.36;100824.27;110476;1263;22198;-79
2023/05/12 11:10:24;;;;;;;10.40;2.60;;;;;;;21.56;28.51;100826.14;110379;1263;22153;-77
2023/05/12 11:12:57;;;;;;;5.10;2.60;;;;;;;21.49;28.67;100825.60;110509;1263;21967;-77
2023/05/12 11:15:40;;;;;;;8.00;2.60;;;;;;;21.42;28.89;100820.96;110176;1262;21988;-75
2023/05/12 11:18:24;;;;;;;4.70;2.60;;;;;;;21.40;29.08;100820.56;110311;1263;258053;-77
2023/05/12 11:20:57;;;;;;;6.40;2.60;;;;;;;21.49;29.17;100820.83;109871;1269;23599;-78
2023/05/12 11:23:31;;;;;;;11.20;3.10;;;;;;;21.57;29.02;100819.15;109851;1267;21981;-78
2023/05/12 11:26:03;;;;;;;9.60;2.40;;;;;;;21.56;29.09;100815.02;109670;1269;22994;-80
2023/05/12 11:28:43;;;;;;;8.10;2.40;;;;;;;21.60;29.07;100816.05;109805;1269;21957;-80
2023/05/12 11:31:21;;;;;;;10.60;2.70;;;;;;;21.53;28.82;100819.24;109996;1269;22001;-79
2023/05/12 11:34:06;;;;;;;9.00;2.80;;;;;;;21.48;28.90;100828.17;110012;1269;21938;-78
2023/05/12 11:36:44;;;;;;;4.90;2.60;;;;;;;21.45;28.93;100823.02;110183;1269;23705;-79
2023/05/12 11:39:40;;;;;;;6.50;2.20;;;;;;;21.50;29.09;100821.10;110098;1269;21979;-80
2023/05/12 11:42:11;;;;;;;6.40;2.20;;;;;;;21.53;28.97;100817.14;109926;1269;22141;-82
2023/05/12 11:44:48;;;;;;;6.10;2.40;;;;;;;21.56;28.94;100812.48;110178;1263;21982;-80
2023/05/12 11:47:19;;;;;;;5.70;2.20;;;;;;;21.61;28.74;100820.65;110725;1263;22767;-78
2023/05/12 11:50:07;;;;;;;4.60;2.20;;;;;;;21.60;28.46;100809.50;110985;1252;23039;-80
2023/05/12 11:52:42;;;;;;;7.20;2.10;;;;;;;21.61;28.45;100813.70;109984;1270;22179;-82
2023/05/12 11:55:22;;;;;;;8.80;2.30;;;;;;;21.59;28.26;100816.38;109878;1267;22115;-81
2023/05/12 11:58:02;;;;;;;3.60;1.60;;;;;;;21.60;28.33;100809.55;110148;1269;21988;-80
2023/05/12 12:00:34;;;;;;;6.30;2.30;;;;;;;21.70;28.42;100811.60;109821;1269;23144;-78
2023/05/12 12:03:11;;;;;;;5.20;2.10;;;;;;;21.85;28.09;100816.83;109730;1272;21985;-79
2023/05/12 12:05:57;;;;;;;3.80;1.90;;;;;;;21.89;27.70;100819.16;109612;1272;21968;-81
2023/05/12 12:08:32;;;;;;;6.30;2.10;;;;;;;21.91;27.61;100815.44;109428;1273;24960;-79
2023/05/12 12:11:07;;;;;;;4.90;1.80;;;;;;;21.92;27.63;100823.02;109672;1269;21974;-80
2023/05/12 12:13:55;;;;;;;7.50;2.20;;;;;;;21.86;27.55;100817.08;109575;1275;21981;-78
2023/05/12 12:16:31;;;;;;;6.00;2.10;;;;;;;21.92;27.52;100818.76;109676;1275;22008;-79
2023/05/12 12:19:03;;;;;;;4.20;2.20;;;;;;;21.94;27.18;100819.27;109478;1275;21999;-79
2023/05/12 12:21:34;;;;;;;4.60;2.10;;;;;;;21.92;27.29;100816.29;109431;1275;22015;-80
2023/05/12 12:24:05;;;;;;;5.70;2.70;;;;;;;21.92;27.06;100814.86;109481;1275;21994;-81
2023/05/12 12:26:35;;;;;;;10.20;2.40;;;;;;;21.88;27.07;100813.61;109512;1275;23052;-80
2023/05/12 12:29:11;;;;;;;5.90;2.10;;;;;;;21.92;27.31;100817.33;110002;1270;21977;-80
2023/05/12 12:31:42;;;;;;;3.40;2.10;;;;;;;21.90;27.11;100819.27;109900;1264;21971;-79
2023/05/12 12:34:14;;;;;;;6.90;2.30;;;;;;;21.87;27.18;100813.83;110290;1263;21981;-79
2023/05/12 12:36:45;;;;;;;4.80;2.00;;;;;;;21.97;27.39;100811.27;110142;1264;22004;-79
2023/05/12 12:39:16;;;;;;;;;;;;;;;22.05;27.55;100810.81;110658;1264;21963;-81
2023/05/12 12:41:51;;;;;;;6.40;2.10;;;;;;;22.09;27.71;100813.69;110708;1263;22000;-80
2023/05/12 12:44:28;;;;;;;5.30;1.90;;;;;;;22.07;27.24;100812.98;110688;1263;23653;-81
2023/05/12 12:46:59;;;;;;;7.30;2.70;;;;;;;21.98;27.18;100812.65;110718;1264;21973;-79
2023/05/12 12:49:35;;;;;;;6.70;2.30;;;;;;;21.92;27.13;100809.19;110128;1263;21998;-80
2023/05/12 12:52:09;;;;;;;11.70;3.20;;;;;;;21.82;27.08;100805.32;109642;1270;22561;-79
2023/05/12 12:54:39;;;;;;;9.10;2.60;;;;;;;21.79;27.70;100803.30;109801;1270;22758;-80
2023/05/12 12:57:10;;;;;;;8.80;2.30;;;;;;;21.78;27.70;100803.14;109656;1270;23619;-79
2023/05/12 12:59:43;;;;;;;5.10;2.30;;;;;;;21.83;27.65;100796.94;109674;1263;23051;-80
2023/05/12 13:02:18;;;;;;;6.10;1.90;;;;;;;21.86;27.06;100796.36;109824;1270;22122;-79
2023/05/12 13:04:53;;;;;;;6.40;2.20;;;;;;;21.87;27.15;100799.14;109349;1270;23078;-79